sensor_id;sensor_type;location;lat;lon;timestamp;P1;durP1;ratioP1;P2;durP2;ratioP2
22449;SDS011;11392;57.390;-2.468;2022-10-16T00:01:26;2.42;;;0.70;;
22449;SDS011;11392;57.390;-2.468;2022-10-16T00:03:55;1.67;;;0.70;;
22449;SDS011;11392;57.390;-2.468;2022-10-16T00:06:24;1.50;;;0.65;;
22449;SDS011;11392;57.390;-2.468;2022-10-16T00:08:52;2.05;;;0.73;;
22449;SDS011;11392;57.390;-2.468;2022-10-16T00:11:23;1.73;;;0.55;;
22449;SDS011;11392;57.390;-2.468;2022-10-16T00:13:58;1.40;;;0.65;;
22449;SDS011;11392;57.390;-2.468;2022-10-16T00:16:26;2.10;;;0.90;;
22449;SDS011;11392;57.390;-2.468;2022-10-16T00:18:54;1.45;;;0.73;;
22449;SDS011;11392;57.390;-2.468;2022-10-16T00:21:23;1.52;;;1.08;;
22449;SDS011;11392;57.390;-2.468;2022-10-16T00:23:54;1.30;;;0.62;;
22449;SDS011;11392;57.390;-2.468;2022-10-16T00:26:27;1.75;;;0.73;;
22449;SDS011;11392;57.390;-2.468;2022-10-16T00:28:55;2.20;;;0.62;;
22449;SDS011;11392;57.390;-2.468;2022-10-16T00:31:22;1.02;;;0.70;;
22449;SDS011;11392;57.390;-2.468;2022-10-16T00:33:50;0.68;;;0.50;;
22449;SDS011;11392;57.390;-2.468;2022-10-16T00:36:19;2.50;;;0.70;;
22449;SDS011;11392;57.390;-2.468;2022-10-16T00:38:49;3.40;;;0.57;;
22449;SDS011;11392;57.390;-2.468;2022-10-16T00:41:19;1.42;;;0.70;;
22449;SDS011;11392;57.390;-2.468;2022-10-16T00:43:48;0.52;;;0.45;;
22449;SDS011;11392;57.390;-2.468;2022-10-16T00:46:27;1.23;;;0.60;;
22449;SDS011;11392;57.390;-2.468;2022-10-16T00:49:31;2.60;;;0.70;;
22449;SDS011;11392;57.390;-2.468;2022-10-16T00:51:51;3.30;;;1.00;;
22449;SDS011;11392;57.390;-2.468;2022-10-16T00:54:24;1.37;;;0.93;;
22449;SDS011;11392;57.390;-2.468;2022-10-16T00:56:53;2.00;;;0.60;;
22449;SDS011;11392;57.390;-2.468;2022-10-16T00:59:24;1.95;;;0.60;;
22449;SDS011;11392;57.390;-2.468;2022-10-16T01:01:53;1.23;;;1.00;;
22449;SDS011;11392;57.390;-2.468;2022-10-16T01:04:21;1.98;;;0.82;;
22449;SDS011;11392;57.390;-2.468;2022-10-16T01:15:17;1.08;;;0.60;;
22449;SDS011;11392;57.390;-2.468;2022-10-16T01:18:00;2.97;;;1.23;;
22449;SDS011;11392;57.390;-2.468;2022-10-16T01:20:53;4.55;;;1.00;;
22449;SDS011;11392;57.390;-2.468;2022-10-16T01:26:46;2.55;;;1.10;;
22449;SDS011;11392;57.390;-2.468;2022-10-16T01:29:35;1.80;;;0.73;;
22449;SDS011;11392;57.390;-2.468;2022-10-16T01:32:10;1.05;;;0.80;;
22449;SDS011;11392;57.390;-2.468;2022-10-16T01:34:58;0.70;;;0.55;;
22449;SDS011;11392;57.390;-2.468;2022-10-16T01:37:38;1.62;;;0.70;;
22449;SDS011;11392;57.390;-2.468;2022-10-16T01:40:12;0.82;;;0.50;;
22449;SDS011;11392;57.390;-2.468;2022-10-16T01:42:48;3.30;;;0.60;;
22449;SDS011;11392;57.390;-2.468;2022-10-16T01:45:26;2.42;;;1.00;;
22449;SDS011;11392;57.390;-2.468;2022-10-16T01:47:56;1.00;;;0.75;;
22449;SDS011;11392;57.390;-2.468;2022-10-16T01:50:24;1.08;;;0.82;;
22449;SDS011;11392;57.390;-2.468;2022-10-16T01:52:52;2.47;;;1.10;;
22449;SDS011;11392;57.390;-2.468;2022-10-16T01:55:23;1.83;;;0.73;;
22449;SDS011;11392;57.390;-2.468;2022-10-16T01:57:55;1.10;;;1.00;;
22449;SDS011;11392;57.390;-2.468;2022-10-16T02:00:25;2.33;;;0.98;;
22449;SDS011;11392;57.390;-2.468;2022-10-16T02:02:53;1.27;;;0.85;;
22449;SDS011;11392;57.390;-2.468;2022-10-16T02:05:26;2.25;;;0.98;;
22449;SDS011;11392;57.390;-2.468;2022-10-16T02:08:05;1.20;;;0.70;;
22449;SDS011;11392;57.390;-2.468;2022-10-16T02:10:32;2.28;;;0.88;;
22449;SDS011;11392;57.390;-2.468;2022-10-16T02:13:16;1.67;;;0.80;;
22449;SDS011;11392;57.390;-2.468;2022-10-16T02:15:58;1.52;;;0.65;;
22449;SDS011;11392;57.390;-2.468;2022-10-16T02:18:25;2.72;;;0.68;;
22449;SDS011;11392;57.390;-2.468;2022-10-16T02:20:57;1.55;;;0.80;;
22449;SDS011;11392;57.390;-2.468;2022-10-16T02:23:40;1.75;;;0.73;;
22449;SDS011;11392;57.390;-2.468;2022-10-16T02:26:26;0.85;;;0.60;;
22449;SDS011;11392;57.390;-2.468;2022-10-16T02:29:20;0.40;;;0.40;;
22449;SDS011;11392;57.390;-2.468;2022-10-16T02:31:53;0.55;;;0.50;;
22449;SDS011;11392;57.390;-2.468;2022-10-16T02:34:24;0.37;;;0.30;;
22449;SDS011;11392;57.390;-2.468;2022-10-16T02:36:55;0.30;;;0.20;;
22449;SDS011;11392;57.390;-2.468;2022-10-16T02:39:23;0.43;;;0.22;;
22449;SDS011;11392;57.390;-2.468;2022-10-16T02:41:52;0.20;;;0.20;;
22449;SDS011;11392;57.390;-2.468;2022-10-16T02:44:20;0.10;;;0.10;;
22449;SDS011;11392;57.390;-2.468;2022-10-16T02:46:47;0.10;;;0.10;;
22449;SDS011;11392;57.390;-2.468;2022-10-16T02:49:14;0.20;;;0.20;;
22449;SDS011;11392;57.390;-2.468;2022-10-16T02:51:41;0.10;;;0.10;;
22449;SDS011;11392;57.390;-2.468;2022-10-16T02:54:08;0.40;;;0.40;;
22449;SDS011;11392;57.390;-2.468;2022-10-16T02:56:35;0.10;;;0.10;;
22449;SDS011;11392;57.390;-2.468;2022-10-16T02:59:02;0.00;;;0.00;;
22449;SDS011;11392;57.390;-2.468;2022-10-16T03:01:29;0.10;;;0.10;;
22449;SDS011;11392;57.390;-2.468;2022-10-16T03:03:56;0.10;;;0.10;;
22449;SDS011;11392;57.390;-2.468;2022-10-16T03:06:23;0.10;;;0.10;;
22449;SDS011;11392;57.390;-2.468;2022-10-16T03:08:50;0.10;;;0.10;;
22449;SDS011;11392;57.390;-2.468;2022-10-16T03:11:17;0.47;;;0.37;;
22449;SDS011;11392;57.390;-2.468;2022-10-16T03:13:44;0.10;;;0.10;;
22449;SDS011;11392;57.390;-2.468;2022-10-16T03:16:11;0.20;;;0.20;;
22449;SDS011;11392;57.390;-2.468;2022-10-16T03:18:38;0.10;;;0.10;;
22449;SDS011;11392;57.390;-2.468;2022-10-16T03:21:05;0.10;;;0.10;;
22449;SDS011;11392;57.390;-2.468;2022-10-16T03:23:32;0.10;;;0.10;;
22449;SDS011;11392;57.390;-2.468;2022-10-16T03:25:58;0.10;;;0.10;;
22449;SDS011;11392;57.390;-2.468;2022-10-16T03:28:25;0.10;;;0.10;;
22449;SDS011;11392;57.390;-2.468;2022-10-16T03:30:52;0.10;;;0.10;;
22449;SDS011;11392;57.390;-2.468;2022-10-16T03:33:19;0.10;;;0.10;;
22449;SDS011;11392;57.390;-2.468;2022-10-16T03:35:50;0.22;;;0.22;;
22449;SDS011;11392;57.390;-2.468;2022-10-16T03:38:19;0.08;;;0.08;;
22449;SDS011;11392;57.390;-2.468;2022-10-16T03:40:47;0.17;;;0.17;;
22449;SDS011;11392;57.390;-2.468;2022-10-16T03:43:14;1.55;;;0.35;;
22449;SDS011;11392;57.390;-2.468;2022-10-16T03:45:41;0.20;;;0.20;;
22449;SDS011;11392;57.390;-2.468;2022-10-16T03:48:08;0.10;;;0.10;;
22449;SDS011;11392;57.390;-2.468;2022-10-16T03:50:35;0.10;;;0.10;;
22449;SDS011;11392;57.390;-2.468;2022-10-16T03:53:03;0.15;;;0.15;;
22449;SDS011;11392;57.390;-2.468;2022-10-16T03:55:30;0.10;;;0.10;;
22449;SDS011;11392;57.390;-2.468;2022-10-16T03:57:57;3.17;;;0.20;;
22449;SDS011;11392;57.390;-2.468;2022-10-16T04:00:24;0.10;;;0.10;;
22449;SDS011;11392;57.390;-2.468;2022-10-16T04:02:51;0.13;;;0.13;;
22449;SDS011;11392;57.390;-2.468;2022-10-16T04:05:18;0.10;;;0.10;;
22449;SDS011;11392;57.390;-2.468;2022-10-16T04:07:45;0.30;;;0.30;;
22449;SDS011;11392;57.390;-2.468;2022-10-16T04:10:12;0.82;;;0.10;;
22449;SDS011;11392;57.390;-2.468;2022-10-16T04:12:39;0.13;;;0.13;;
22449;SDS011;11392;57.390;-2.468;2022-10-16T04:15:06;0.47;;;0.17;;
22449;SDS011;11392;57.390;-2.468;2022-10-16T04:17:33;0.28;;;0.20;;
22449;SDS011;11392;57.390;-2.468;2022-10-16T04:20:00;0.25;;;0.20;;
22449;SDS011;11392;57.390;-2.468;2022-10-16T04:22:27;0.13;;;0.13;;
22449;SDS011;11392;57.390;-2.468;2022-10-16T04:24:54;0.20;;;0.20;;
22449;SDS011;11392;57.390;-2.468;2022-10-16T04:27:21;0.10;;;0.10;;
22449;SDS011;11392;57.390;-2.468;2022-10-16T04:29:49;0.20;;;0.20;;
22449;SDS011;11392;57.390;-2.468;2022-10-16T04:32:16;0.10;;;0.10;;
22449;SDS011;11392;57.390;-2.468;2022-10-16T04:34:42;0.43;;;0.25;;
22449;SDS011;11392;57.390;-2.468;2022-10-16T04:37:09;0.10;;;0.10;;
22449;SDS011;11392;57.390;-2.468;2022-10-16T04:39:36;0.30;;;0.30;;
22449;SDS011;11392;57.390;-2.468;2022-10-16T04:42:03;1.55;;;0.20;;
22449;SDS011;11392;57.390;-2.468;2022-10-16T04:44:30;0.20;;;0.20;;
22449;SDS011;11392;57.390;-2.468;2022-10-16T04:46:57;0.20;;;0.20;;
22449;SDS011;11392;57.390;-2.468;2022-10-16T04:49:24;0.20;;;0.20;;
22449;SDS011;11392;57.390;-2.468;2022-10-16T04:51:51;0.20;;;0.20;;
22449;SDS011;11392;57.390;-2.468;2022-10-16T04:54:18;2.28;;;0.25;;
22449;SDS011;11392;57.390;-2.468;2022-10-16T04:56:45;0.28;;;0.20;;
22449;SDS011;11392;57.390;-2.468;2022-10-16T04:59:17;0.95;;;0.30;;
22449;SDS011;11392;57.390;-2.468;2022-10-16T05:01:45;0.20;;;0.20;;
22449;SDS011;11392;57.390;-2.468;2022-10-16T05:04:12;0.30;;;0.30;;
22449;SDS011;11392;57.390;-2.468;2022-10-16T05:06:41;0.20;;;0.20;;
22449;SDS011;11392;57.390;-2.468;2022-10-16T05:09:09;0.20;;;0.20;;
22449;SDS011;11392;57.390;-2.468;2022-10-16T05:11:36;0.20;;;0.20;;
22449;SDS011;11392;57.390;-2.468;2022-10-16T05:14:03;0.30;;;0.30;;
22449;SDS011;11392;57.390;-2.468;2022-10-16T05:16:30;1.45;;;0.30;;
22449;SDS011;11392;57.390;-2.468;2022-10-16T05:18:57;0.30;;;0.30;;
22449;SDS011;11392;57.390;-2.468;2022-10-16T05:21:44;0.30;;;0.30;;
22449;SDS011;11392;57.390;-2.468;2022-10-16T05:24:11;0.20;;;0.20;;
22449;SDS011;11392;57.390;-2.468;2022-10-16T05:26:38;0.20;;;0.20;;
22449;SDS011;11392;57.390;-2.468;2022-10-16T05:29:05;0.30;;;0.30;;
22449;SDS011;11392;57.390;-2.468;2022-10-16T05:31:32;0.55;;;0.22;;
22449;SDS011;11392;57.390;-2.468;2022-10-16T05:33:59;0.10;;;0.10;;
22449;SDS011;11392;57.390;-2.468;2022-10-16T05:36:26;0.15;;;0.15;;
22449;SDS011;11392;57.390;-2.468;2022-10-16T05:38:53;0.20;;;0.20;;
22449;SDS011;11392;57.390;-2.468;2022-10-16T05:41:20;0.20;;;0.20;;
22449;SDS011;11392;57.390;-2.468;2022-10-16T05:43:49;0.30;;;0.30;;
22449;SDS011;11392;57.390;-2.468;2022-10-16T05:46:16;0.30;;;0.30;;
22449;SDS011;11392;57.390;-2.468;2022-10-16T05:48:43;0.85;;;0.30;;
22449;SDS011;11392;57.390;-2.468;2022-10-16T05:51:11;0.30;;;0.20;;
22449;SDS011;11392;57.390;-2.468;2022-10-16T05:53:40;0.20;;;0.20;;
22449;SDS011;11392;57.390;-2.468;2022-10-16T05:56:12;1.20;;;0.30;;
22449;SDS011;11392;57.390;-2.468;2022-10-16T05:58:39;0.20;;;0.20;;
22449;SDS011;11392;57.390;-2.468;2022-10-16T06:01:09;0.20;;;0.20;;
22449;SDS011;11392;57.390;-2.468;2022-10-16T06:03:38;1.98;;;0.32;;
22449;SDS011;11392;57.390;-2.468;2022-10-16T06:06:12;0.80;;;0.20;;
22449;SDS011;11392;57.390;-2.468;2022-10-16T06:08:42;0.32;;;0.32;;
22449;SDS011;11392;57.390;-2.468;2022-10-16T06:11:12;0.30;;;0.30;;
22449;SDS011;11392;57.390;-2.468;2022-10-16T06:13:48;0.80;;;0.30;;
22449;SDS011;11392;57.390;-2.468;2022-10-16T06:16:16;0.35;;;0.35;;
22449;SDS011;11392;57.390;-2.468;2022-10-16T06:18:44;0.28;;;0.28;;
22449;SDS011;11392;57.390;-2.468;2022-10-16T06:21:16;0.85;;;0.30;;
22449;SDS011;11392;57.390;-2.468;2022-10-16T06:23:45;0.20;;;0.20;;
22449;SDS011;11392;57.390;-2.468;2022-10-16T06:26:13;1.35;;;0.30;;
22449;SDS011;11392;57.390;-2.468;2022-10-16T06:28:42;1.20;;;0.35;;
22449;SDS011;11392;57.390;-2.468;2022-10-16T06:31:09;0.43;;;0.30;;
22449;SDS011;11392;57.390;-2.468;2022-10-16T06:33:37;0.75;;;0.35;;
22449;SDS011;11392;57.390;-2.468;2022-10-16T06:38:34;1.20;;;0.40;;
22449;SDS011;11392;57.390;-2.468;2022-10-16T06:41:02;0.30;;;0.30;;
22449;SDS011;11392;57.390;-2.468;2022-10-16T06:43:30;0.40;;;0.30;;
22449;SDS011;11392;57.390;-2.468;2022-10-16T06:46:03;0.10;;;0.10;;
22449;SDS011;11392;57.390;-2.468;2022-10-16T06:48:34;0.30;;;0.30;;
22449;SDS011;11392;57.390;-2.468;2022-10-16T06:51:03;0.20;;;0.20;;
22449;SDS011;11392;57.390;-2.468;2022-10-16T06:53:35;0.40;;;0.30;;
22449;SDS011;11392;57.390;-2.468;2022-10-16T06:56:16;0.77;;;0.50;;
22449;SDS011;11392;57.390;-2.468;2022-10-16T06:58:46;0.30;;;0.30;;
22449;SDS011;11392;57.390;-2.468;2022-10-16T07:01:13;0.30;;;0.30;;
22449;SDS011;11392;57.390;-2.468;2022-10-16T07:03:42;0.30;;;0.30;;
22449;SDS011;11392;57.390;-2.468;2022-10-16T07:06:13;0.30;;;0.28;;
22449;SDS011;11392;57.390;-2.468;2022-10-16T07:08:42;1.10;;;0.30;;
22449;SDS011;11392;57.390;-2.468;2022-10-16T07:11:12;0.20;;;0.20;;
22449;SDS011;11392;57.390;-2.468;2022-10-16T07:13:43;0.20;;;0.20;;
22449;SDS011;11392;57.390;-2.468;2022-10-16T07:16:20;0.30;;;0.30;;
22449;SDS011;11392;57.390;-2.468;2022-10-16T07:18:49;0.30;;;0.30;;
22449;SDS011;11392;57.390;-2.468;2022-10-16T07:21:21;0.25;;;0.25;;
22449;SDS011;11392;57.390;-2.468;2022-10-16T07:23:52;0.37;;;0.20;;
22449;SDS011;11392;57.390;-2.468;2022-10-16T07:26:21;0.20;;;0.20;;
22449;SDS011;11392;57.390;-2.468;2022-10-16T07:28:49;0.20;;;0.20;;
22449;SDS011;11392;57.390;-2.468;2022-10-16T07:31:21;0.20;;;0.20;;
22449;SDS011;11392;57.390;-2.468;2022-10-16T07:33:48;0.57;;;0.20;;
22449;SDS011;11392;57.390;-2.468;2022-10-16T07:36:16;0.17;;;0.17;;
22449;SDS011;11392;57.390;-2.468;2022-10-16T07:38:45;1.40;;;0.40;;
22449;SDS011;11392;57.390;-2.468;2022-10-16T07:41:16;0.20;;;0.20;;
22449;SDS011;11392;57.390;-2.468;2022-10-16T07:43:45;0.30;;;0.20;;
22449;SDS011;11392;57.390;-2.468;2022-10-16T07:46:13;1.62;;;0.30;;
22449;SDS011;11392;57.390;-2.468;2022-10-16T07:48:40;0.22;;;0.22;;
22449;SDS011;11392;57.390;-2.468;2022-10-16T07:51:11;0.20;;;0.20;;
22449;SDS011;11392;57.390;-2.468;2022-10-16T07:53:39;0.43;;;0.30;;
22449;SDS011;11392;57.390;-2.468;2022-10-16T07:56:07;0.60;;;0.60;;
22449;SDS011;11392;57.390;-2.468;2022-10-16T07:58:34;0.45;;;0.20;;
22449;SDS011;11392;57.390;-2.468;2022-10-16T08:01:05;0.10;;;0.10;;
22449;SDS011;11392;57.390;-2.468;2022-10-16T08:03:33;0.20;;;0.20;;
22449;SDS011;11392;57.390;-2.468;2022-10-16T08:06:01;1.12;;;0.20;;
22449;SDS011;11392;57.390;-2.468;2022-10-16T08:08:29;1.65;;;0.40;;
22449;SDS011;11392;57.390;-2.468;2022-10-16T08:10:56;0.68;;;0.30;;
22449;SDS011;11392;57.390;-2.468;2022-10-16T08:13:23;0.20;;;0.20;;
22449;SDS011;11392;57.390;-2.468;2022-10-16T08:15:50;0.30;;;0.30;;
22449;SDS011;11392;57.390;-2.468;2022-10-16T08:18:17;0.28;;;0.20;;
22449;SDS011;11392;57.390;-2.468;2022-10-16T08:20:44;0.40;;;0.30;;
22449;SDS011;11392;57.390;-2.468;2022-10-16T08:23:11;0.20;;;0.20;;
22449;SDS011;11392;57.390;-2.468;2022-10-16T08:25:40;0.15;;;0.15;;
22449;SDS011;11392;57.390;-2.468;2022-10-16T08:28:08;0.20;;;0.20;;
22449;SDS011;11392;57.390;-2.468;2022-10-16T08:30:37;0.20;;;0.20;;
22449;SDS011;11392;57.390;-2.468;2022-10-16T08:33:04;0.37;;;0.32;;
22449;SDS011;11392;57.390;-2.468;2022-10-16T08:35:32;0.20;;;0.20;;
22449;SDS011;11392;57.390;-2.468;2022-10-16T08:37:59;0.73;;;0.20;;
22449;SDS011;11392;57.390;-2.468;2022-10-16T08:40:29;0.70;;;0.20;;
22449;SDS011;11392;57.390;-2.468;2022-10-16T08:46:22;0.20;;;0.20;;
22449;SDS011;11392;57.390;-2.468;2022-10-16T08:49:17;0.25;;;0.25;;
22449;SDS011;11392;57.390;-2.468;2022-10-16T08:51:44;0.10;;;0.10;;
22449;SDS011;11392;57.390;-2.468;2022-10-16T08:54:20;0.80;;;0.10;;
22449;SDS011;11392;57.390;-2.468;2022-10-16T08:56:48;1.40;;;0.17;;
22449;SDS011;11392;57.390;-2.468;2022-10-16T08:59:16;0.30;;;0.30;;
22449;SDS011;11392;57.390;-2.468;2022-10-16T09:01:45;0.20;;;0.20;;
22449;SDS011;11392;57.390;-2.468;2022-10-16T09:06:55;1.05;;;0.30;;
22449;SDS011;11392;57.390;-2.468;2022-10-16T09:22:48;0.40;;;0.17;;
22449;SDS011;11392;57.390;-2.468;2022-10-16T09:25:37;0.03;;;0.00;;
22449;SDS011;11392;57.390;-2.468;2022-10-16T09:28:07;0.20;;;0.20;;
22449;SDS011;11392;57.390;-2.468;2022-10-16T09:30:37;0.00;;;0.00;;
22449;SDS011;11392;57.390;-2.468;2022-10-16T09:33:06;0.00;;;0.00;;
22449;SDS011;11392;57.390;-2.468;2022-10-16T09:35:37;0.00;;;0.00;;
22449;SDS011;11392;57.390;-2.468;2022-10-16T09:38:06;0.20;;;0.00;;
22449;SDS011;11392;57.390;-2.468;2022-10-16T09:40:35;0.10;;;0.00;;
22449;SDS011;11392;57.390;-2.468;2022-10-16T09:43:18;0.95;;;0.10;;
22449;SDS011;11392;57.390;-2.468;2022-10-16T09:45:57;0.10;;;0.10;;
22449;SDS011;11392;57.390;-2.468;2022-10-16T09:48:39;0.00;;;0.00;;
22449;SDS011;11392;57.390;-2.468;2022-10-16T09:51:18;0.00;;;0.00;;
22449;SDS011;11392;57.390;-2.468;2022-10-16T09:53:56;0.10;;;0.10;;
22449;SDS011;11392;57.390;-2.468;2022-10-16T09:56:34;1.45;;;0.00;;
22449;SDS011;11392;57.390;-2.468;2022-10-16T09:59:08;0.00;;;0.00;;
22449;SDS011;11392;57.390;-2.468;2022-10-16T10:01:38;1.27;;;0.00;;
22449;SDS011;11392;57.390;-2.468;2022-10-16T10:04:07;0.17;;;0.08;;
22449;SDS011;11392;57.390;-2.468;2022-10-16T10:06:37;0.25;;;0.10;;
22449;SDS011;11392;57.390;-2.468;2022-10-16T10:11:51;0.20;;;0.00;;
22449;SDS011;11392;57.390;-2.468;2022-10-16T10:17:09;0.00;;;0.00;;
22449;SDS011;11392;57.390;-2.468;2022-10-16T10:19:39;1.62;;;0.20;;
22449;SDS011;11392;57.390;-2.468;2022-10-16T10:25:14;0.17;;;0.10;;
22449;SDS011;11392;57.390;-2.468;2022-10-16T10:36:04;0.62;;;0.35;;
22449;SDS011;11392;57.390;-2.468;2022-10-16T10:39:04;0.52;;;0.00;;
22449;SDS011;11392;57.390;-2.468;2022-10-16T10:41:50;0.00;;;0.00;;
22449;SDS011;11392;57.390;-2.468;2022-10-16T11:01:08;0.70;;;0.10;;
22449;SDS011;11392;57.390;-2.468;2022-10-16T11:07:00;0.00;;;0.00;;
22449;SDS011;11392;57.390;-2.468;2022-10-16T11:09:35;0.00;;;0.00;;
22449;SDS011;11392;57.390;-2.468;2022-10-16T11:12:07;0.00;;;0.00;;
22449;SDS011;11392;57.390;-2.468;2022-10-16T11:14:37;0.08;;;0.00;;
22449;SDS011;11392;57.390;-2.468;2022-10-16T11:25:18;0.20;;;0.20;;
22449;SDS011;11392;57.390;-2.468;2022-10-16T11:30:42;0.17;;;0.00;;
22449;SDS011;11392;57.390;-2.468;2022-10-16T11:40:59;0.10;;;0.10;;
22449;SDS011;11392;57.390;-2.468;2022-10-16T11:46:02;0.00;;;0.00;;
22449;SDS011;11392;57.390;-2.468;2022-10-16T11:48:38;0.10;;;0.10;;
22449;SDS011;11392;57.390;-2.468;2022-10-16T11:51:36;0.50;;;0.10;;
22449;SDS011;11392;57.390;-2.468;2022-10-16T11:57:02;0.85;;;0.20;;
22449;SDS011;11392;57.390;-2.468;2022-10-16T12:05:29;0.20;;;0.10;;
22449;SDS011;11392;57.390;-2.468;2022-10-16T12:08:15;0.13;;;0.13;;
22449;SDS011;11392;57.390;-2.468;2022-10-16T12:10:44;0.65;;;0.10;;
22449;SDS011;11392;57.390;-2.468;2022-10-16T12:13:32;0.13;;;0.10;;
22449;SDS011;11392;57.390;-2.468;2022-10-16T12:16:05;0.13;;;0.10;;
22449;SDS011;11392;57.390;-2.468;2022-10-16T12:18:32;1.25;;;0.13;;
22449;SDS011;11392;57.390;-2.468;2022-10-16T12:20:59;0.32;;;0.15;;
22449;SDS011;11392;57.390;-2.468;2022-10-16T12:23:32;0.15;;;0.10;;
22449;SDS011;11392;57.390;-2.468;2022-10-16T12:26:04;0.30;;;0.20;;
22449;SDS011;11392;57.390;-2.468;2022-10-16T12:28:32;0.32;;;0.10;;
22449;SDS011;11392;57.390;-2.468;2022-10-16T12:31:06;1.17;;;0.40;;
22449;SDS011;11392;57.390;-2.468;2022-10-16T12:33:57;0.25;;;0.10;;
22449;SDS011;11392;57.390;-2.468;2022-10-16T12:36:32;0.30;;;0.05;;
22449;SDS011;11392;57.390;-2.468;2022-10-16T12:39:00;1.83;;;0.30;;
22449;SDS011;11392;57.390;-2.468;2022-10-16T12:41:32;0.68;;;0.20;;
22449;SDS011;11392;57.390;-2.468;2022-10-16T12:44:01;0.20;;;0.20;;
22449;SDS011;11392;57.390;-2.468;2022-10-16T12:49:20;0.50;;;0.20;;
22449;SDS011;11392;57.390;-2.468;2022-10-16T12:51:54;1.17;;;0.30;;
22449;SDS011;11392;57.390;-2.468;2022-10-16T12:54:25;0.52;;;0.30;;
22449;SDS011;11392;57.390;-2.468;2022-10-16T13:00:03;0.40;;;0.20;;
22449;SDS011;11392;57.390;-2.468;2022-10-16T13:17:24;0.50;;;0.10;;
22449;SDS011;11392;57.390;-2.468;2022-10-16T13:23:15;0.22;;;0.00;;
22449;SDS011;11392;57.390;-2.468;2022-10-16T13:25:58;0.50;;;0.10;;
22449;SDS011;11392;57.390;-2.468;2022-10-16T13:28:46;0.85;;;0.35;;
22449;SDS011;11392;57.390;-2.468;2022-10-16T13:31:20;0.50;;;0.10;;
22449;SDS011;11392;57.390;-2.468;2022-10-16T13:33:53;2.92;;;0.13;;
22449;SDS011;11392;57.390;-2.468;2022-10-16T13:36:50;0.32;;;0.10;;
22449;SDS011;11392;57.390;-2.468;2022-10-16T13:39:24;0.30;;;0.15;;
22449;SDS011;11392;57.390;-2.468;2022-10-16T13:42:03;0.20;;;0.10;;
22449;SDS011;11392;57.390;-2.468;2022-10-16T13:44:42;0.82;;;0.22;;
22449;SDS011;11392;57.390;-2.468;2022-10-16T13:47:18;0.25;;;0.10;;
22449;SDS011;11392;57.390;-2.468;2022-10-16T13:50:00;0.50;;;0.10;;
22449;SDS011;11392;57.390;-2.468;2022-10-16T13:52:28;0.25;;;0.10;;
22449;SDS011;11392;57.390;-2.468;2022-10-16T13:54:56;1.60;;;0.20;;
22449;SDS011;11392;57.390;-2.468;2022-10-16T13:57:27;0.60;;;0.13;;
22449;SDS011;11392;57.390;-2.468;2022-10-16T13:59:55;0.62;;;0.28;;
22449;SDS011;11392;57.390;-2.468;2022-10-16T14:05:01;0.30;;;0.13;;
22449;SDS011;11392;57.390;-2.468;2022-10-16T14:07:31;1.02;;;0.35;;
22449;SDS011;11392;57.390;-2.468;2022-10-16T14:10:01;1.25;;;0.43;;
22449;SDS011;11392;57.390;-2.468;2022-10-16T14:12:30;1.17;;;0.20;;
22449;SDS011;11392;57.390;-2.468;2022-10-16T14:14:58;1.80;;;0.30;;
22449;SDS011;11392;57.390;-2.468;2022-10-16T14:17:29;2.00;;;0.47;;
22449;SDS011;11392;57.390;-2.468;2022-10-16T14:20:00;1.08;;;0.50;;
22449;SDS011;11392;57.390;-2.468;2022-10-16T14:22:33;0.40;;;0.20;;
22449;SDS011;11392;57.390;-2.468;2022-10-16T14:25:15;0.90;;;0.20;;
22449;SDS011;11392;57.390;-2.468;2022-10-16T14:30:31;1.48;;;0.20;;
22449;SDS011;11392;57.390;-2.468;2022-10-16T14:33:02;1.80;;;0.43;;
22449;SDS011;11392;57.390;-2.468;2022-10-16T14:35:34;4.25;;;0.60;;
22449;SDS011;11392;57.390;-2.468;2022-10-16T14:38:03;1.33;;;0.50;;
22449;SDS011;11392;57.390;-2.468;2022-10-16T14:40:33;1.15;;;0.30;;
22449;SDS011;11392;57.390;-2.468;2022-10-16T14:43:03;1.37;;;0.28;;
22449;SDS011;11392;57.390;-2.468;2022-10-16T14:45:32;2.25;;;0.30;;
22449;SDS011;11392;57.390;-2.468;2022-10-16T14:48:02;2.35;;;0.55;;
22449;SDS011;11392;57.390;-2.468;2022-10-16T14:50:44;1.60;;;0.25;;
22449;SDS011;11392;57.390;-2.468;2022-10-16T14:53:12;0.88;;;0.47;;
22449;SDS011;11392;57.390;-2.468;2022-10-16T14:55:39;2.40;;;0.70;;
22449;SDS011;11392;57.390;-2.468;2022-10-16T14:58:10;0.93;;;0.52;;
22449;SDS011;11392;57.390;-2.468;2022-10-16T15:00:45;0.52;;;0.30;;
22449;SDS011;11392;57.390;-2.468;2022-10-16T15:03:12;2.12;;;0.65;;
22449;SDS011;11392;57.390;-2.468;2022-10-16T15:05:40;2.65;;;0.70;;
22449;SDS011;11392;57.390;-2.468;2022-10-16T15:08:07;1.80;;;0.65;;
22449;SDS011;11392;57.390;-2.468;2022-10-16T15:10:37;0.65;;;0.47;;
22449;SDS011;11392;57.390;-2.468;2022-10-16T15:13:09;3.05;;;1.30;;
22449;SDS011;11392;57.390;-2.468;2022-10-16T15:15:49;0.93;;;0.40;;
22449;SDS011;11392;57.390;-2.468;2022-10-16T15:18:16;1.27;;;0.70;;
22449;SDS011;11392;57.390;-2.468;2022-10-16T15:20:47;1.37;;;0.50;;
22449;SDS011;11392;57.390;-2.468;2022-10-16T15:23:17;0.85;;;0.40;;
22449;SDS011;11392;57.390;-2.468;2022-10-16T15:25:46;2.45;;;0.60;;
22449;SDS011;11392;57.390;-2.468;2022-10-16T15:28:15;1.95;;;0.90;;
22449;SDS011;11392;57.390;-2.468;2022-10-16T15:30:43;2.75;;;0.80;;
22449;SDS011;11392;57.390;-2.468;2022-10-16T15:33:18;1.40;;;0.50;;
22449;SDS011;11392;57.390;-2.468;2022-10-16T15:35:55;1.27;;;0.50;;
22449;SDS011;11392;57.390;-2.468;2022-10-16T15:38:22;2.87;;;0.60;;
22449;SDS011;11392;57.390;-2.468;2022-10-16T15:40:54;3.08;;;0.70;;
22449;SDS011;11392;57.390;-2.468;2022-10-16T15:43:21;0.98;;;0.65;;
22449;SDS011;11392;57.390;-2.468;2022-10-16T15:46:08;2.50;;;0.60;;
22449;SDS011;11392;57.390;-2.468;2022-10-16T15:48:38;1.73;;;0.68;;
22449;SDS011;11392;57.390;-2.468;2022-10-16T15:51:06;1.52;;;0.50;;
22449;SDS011;11392;57.390;-2.468;2022-10-16T15:53:34;2.00;;;0.85;;
22449;SDS011;11392;57.390;-2.468;2022-10-16T15:56:02;1.50;;;0.50;;
22449;SDS011;11392;57.390;-2.468;2022-10-16T15:58:29;1.90;;;0.77;;
22449;SDS011;11392;57.390;-2.468;2022-10-16T16:00:57;2.12;;;0.60;;
22449;SDS011;11392;57.390;-2.468;2022-10-16T16:03:28;1.10;;;0.60;;
22449;SDS011;11392;57.390;-2.468;2022-10-16T16:05:55;1.17;;;0.50;;
22449;SDS011;11392;57.390;-2.468;2022-10-16T16:08:22;2.47;;;0.90;;
22449;SDS011;11392;57.390;-2.468;2022-10-16T16:11:03;2.90;;;1.00;;
22449;SDS011;11392;57.390;-2.468;2022-10-16T16:13:31;1.92;;;0.85;;
22449;SDS011;11392;57.390;-2.468;2022-10-16T16:15:58;4.62;;;0.88;;
22449;SDS011;11392;57.390;-2.468;2022-10-16T16:18:26;1.90;;;0.65;;
22449;SDS011;11392;57.390;-2.468;2022-10-16T16:20:54;2.65;;;0.68;;
22449;SDS011;11392;57.390;-2.468;2022-10-16T16:23:22;3.62;;;0.70;;
22449;SDS011;11392;57.390;-2.468;2022-10-16T16:26:10;1.80;;;0.80;;
22449;SDS011;11392;57.390;-2.468;2022-10-16T16:28:38;1.90;;;0.70;;
22449;SDS011;11392;57.390;-2.468;2022-10-16T16:31:06;1.12;;;0.57;;
22449;SDS011;11392;57.390;-2.468;2022-10-16T16:33:33;1.90;;;0.70;;
22449;SDS011;11392;57.390;-2.468;2022-10-16T16:36:02;2.70;;;0.90;;
22449;SDS011;11392;57.390;-2.468;2022-10-16T16:38:39;2.72;;;1.02;;
22449;SDS011;11392;57.390;-2.468;2022-10-16T16:41:40;2.28;;;0.60;;
22449;SDS011;11392;57.390;-2.468;2022-10-16T16:44:04;2.12;;;1.08;;
22449;SDS011;11392;57.390;-2.468;2022-10-16T16:46:33;1.05;;;0.70;;
22449;SDS011;11392;57.390;-2.468;2022-10-16T16:49:00;3.78;;;1.33;;
22449;SDS011;11392;57.390;-2.468;2022-10-16T16:51:28;4.55;;;1.42;;
22449;SDS011;11392;57.390;-2.468;2022-10-16T16:53:55;2.60;;;0.80;;
22449;SDS011;11392;57.390;-2.468;2022-10-16T16:56:22;2.58;;;0.90;;
22449;SDS011;11392;57.390;-2.468;2022-10-16T16:58:51;3.10;;;1.02;;
22449;SDS011;11392;57.390;-2.468;2022-10-16T17:01:19;1.62;;;0.80;;
22449;SDS011;11392;57.390;-2.468;2022-10-16T17:03:48;2.35;;;1.10;;
22449;SDS011;11392;57.390;-2.468;2022-10-16T17:06:25;2.33;;;0.90;;